• Join FlightAware (Why Join?)
  • Login
  • US Flag 
11:53PM EDT


 

Airport Tracker/Info


-or-


 

Live Flight TrackerFlight Track Log ✈ NKS324 ✈ 16-Jun-2013 ✈ KMCO - KACY

Flight Track Log - Related Links

Times and Time Zones

All times are in EDT time to prevent confusion due to time zone crossing. See the NKS324 flight status page for this flight to view local times or setup timezone preferences in your user account.

Time Position Orientation Groundspeed Altitude Reporting Facility
EDT Latitude Longitude Course Direction KTS MPH feet Rate Location/Type
11:34PM 28.4000 -81.3000 150° Southeast 167 192 500  Level Orlando TRACON
11:35PM 28.3500 -81.2667 150° Southeast 217 250 2,800 1,800 Climbing Orlando TRACON
11:36PM 28.3500 -81.1833 90° East 276 318 4,800 2,100 Climbing Orlando TRACON
11:42PM 28.8540 -81.2860 90° East 388 447 17,400 2,040 Climbing FlightAware
11:43PM 28.9220 -81.3140 340° North 399 459 18,400 1,440 Climbing FlightAware
11:44PM 29.0010 -81.3470 340° North 412 474 19,500 1,620 Climbing FlightAware
11:44PM 29.0780 -81.3790 340° North 414 476 20,800 1,800 Climbing FlightAware
11:45PM 29.1630 -81.3940 351° North 418 481 22,100 1,740 Climbing FlightAware
11:46PM 29.2410 -81.4020 355° North 416 479 23,300 1,620 Climbing FlightAware
11:46PM 29.3190 -81.4090 356° North 420 483 24,300 1,140 Climbing FlightAware
11:47PM 29.4030 -81.4180 355° North 430 495 25,000 600 Climbing FlightAware
11:48PM 29.4780 -81.4250 355° North 433 498 25,200 720 Climbing FlightAware
11:49PM 29.5640 -81.4340 355° North 438 504 26,100 960 Climbing FlightAware
11:49PM 29.6540 -81.4420 356° North 27,100 840 Climbing FlightAware
11:50PM 29.7360 -81.4500 355° North 451 519 27,300 660 Climbing FlightAware
11:51PM 29.8560 -81.4620 355° North 453 521 28,300 1,380 Climbing FlightAware
11:51PM 29.7900 -81.4560 175° South 463 533 28,800 1,200 Climbing FlightAware
11:52PM 29.9830 -81.4100 12° North 472 543 29,400 840 Climbing FlightAware
11:53PM 30.0620 -81.3740 22° Northeast 473 544 30,100 960 Climbing FlightAware
11:53PM 30.1480 -81.3350 21° North 474 545 30,800 1,140 Climbing FlightAware
11:54PM 30.2330 -81.2960 22° Northeast 467 537 31,700 1,320 Climbing FlightAware
11:55PM 30.3240 -81.2540 22° Northeast 461 531 32,700 1,140 Climbing FlightAware
11:55PM 30.4030 -81.2180 21° North 459 528 33,300 840 Climbing FlightAware
11:56PM 30.4820 -81.1810 22° Northeast 458 527 33,900 780 Climbing FlightAware
11:57PM 30.5530 -81.1490 21° North 459 528 34,400 480 Climbing FlightAware
11:57PM 30.6440 -81.1060 22° Northeast 462 532 34,600 180 Climbing FlightAware
11:58PM 30.7040 -81.0780 22° Northeast 467 537 34,700 60 Climbing FlightAware
11:59PM 30.7880 -81.0390 22° Northeast 467 537 34,700  Level FlightAware
11:59PM 30.8490 -81.0100 22° Northeast 467 537 34,700  Level FlightAware
12:00AM 30.9310 -80.9720 22° Northeast 467 537 34,700  Level FlightAware
12:01AM 31.0090 -80.9350 22° Northeast 467 537 34,700  Level FlightAware
12:02AM 31.0720 -80.9050 22° Northeast 467 537 34,700  Level FlightAware
12:02AM 31.1500 -80.8680 22° Northeast 467 537 34,700  Level FlightAware
12:03AM 31.2120 -80.8390 22° Northeast 467 537 34,700  Level FlightAware
12:04AM 31.2950 -80.8000 22° Northeast 467 537 34,700  Level FlightAware
12:04AM 31.3580 -80.7700 22° Northeast 467 537 34,700  Level FlightAware
12:05AM 31.4620 -80.7210 22° Northeast 467 537 34,700  Level FlightAware
12:06AM 31.5250 -80.6910 22° Northeast 467 537 34,700 180 Level FlightAware
12:07AM 31.7970 -80.5660 21° North 471 542 35,000 180 Climbing FlightAware
12:08AM 31.8850 -80.5240 22° Northeast 469 540 35,000  Level FlightAware
12:08AM 31.9760 -80.4810 22° Northeast 468 539 35,000  Level FlightAware
12:09AM 32.0540 -80.4430 22° Northeast 468 539 35,000  Level FlightAware
12:10AM 32.1310 -80.3910 30° Northeast 472 543 35,000  Level FlightAware
12:10AM 32.2060 -80.3370 31° Northeast 470 541 35,000  Level FlightAware
12:11AM 32.2850 -80.2790 32° Northeast 470 541 35,000  Level FlightAware
12:12AM 32.3640 -80.2220 31° Northeast 470 541 35,000  Level FlightAware
12:13AM 32.4460 -80.1620 32° Northeast 470 541 35,000  Level FlightAware
12:13AM 32.5280 -80.1020 32° Northeast 470 541 35,000  Level FlightAware
12:14AM 32.6010 -80.0480 32° Northeast 471 542 35,000  Level FlightAware
12:15AM 32.6690 -79.9980 32° Northeast 470 541 35,000  Level FlightAware
12:15AM 32.7600 -79.9310 32° Northeast 471 542 35,000  Level FlightAware
12:16AM 32.8310 -79.8780 32° Northeast 471 542 35,000  Level FlightAware
12:17AM 32.9100 -79.8200 32° Northeast 470 541 35,000  Level FlightAware
12:18AM 32.9920 -79.7600 32° Northeast 469 540 35,000  Level FlightAware
12:18AM 33.0670 -79.7040 32° Northeast 469 540 35,000  Level FlightAware
12:19AM 33.1340 -79.6540 32° Northeast 468 539 35,000  Level FlightAware
12:20AM 33.2230 -79.5880 32° Northeast 468 539 35,000  Level FlightAware
12:20AM 33.2950 -79.5340 32° Northeast 469 540 35,000  Level FlightAware
12:21AM 33.3780 -79.4720 32° Northeast 471 542 35,000  Level FlightAware
12:22AM 33.4520 -79.4160 32° Northeast 471 542 35,000  Level FlightAware
12:22AM 33.5360 -79.3540 32° Northeast 470 541 35,000  Level FlightAware
12:23AM 33.6100 -79.2980 32° Northeast 469 540 35,000  Level FlightAware
12:24AM 33.6830 -79.2430 32° Northeast 469 540 35,000  Level FlightAware
12:25AM 33.7660 -79.1800 32° Northeast 469 540 35,000  Level FlightAware
12:25AM 33.8370 -79.1270 32° Northeast 471 542 35,000  Level FlightAware
12:26AM 33.9210 -79.0620 33° Northeast 470 541 35,000  Level FlightAware
12:27AM 33.9960 -79.0050 32° Northeast 471 542 35,000  Level FlightAware
12:27AM 34.0750 -78.9450 32° Northeast 469 540 35,000  Level FlightAware
12:28AM 34.1520 -78.8860 32° Northeast 470 541 35,000  Level FlightAware
12:29AM 34.2270 -78.8280 33° Northeast 471 542 35,000  Level FlightAware
12:29AM 34.2990 -78.7730 32° Northeast 472 543 35,000  Level FlightAware
12:30AM 34.4050 -78.6920 32° Northeast 472 543 35,000  Level FlightAware
12:31AM 34.4830 -78.6320 32° Northeast 473 544 35,000  Level FlightAware
12:32AM 34.5410 -78.5880 32° Northeast 473 544 35,000  Level FlightAware
12:32AM 34.4570 -78.6520 212° Southwest 35,000  Level FlightAware
12:33AM 34.6910 -78.4700 33° Northeast 474 545 35,000  Level FlightAware
12:34AM 34.7720 -78.4070 33° Northeast 474 545 35,000  Level FlightAware
12:34AM 34.8480 -78.3480 32° Northeast 474 545 35,000  Level FlightAware
12:35AM 34.9320 -78.2820 33° Northeast 476 548 35,000  Level FlightAware
12:36AM 34.9880 -78.2400 32° Northeast 476 548 35,000  Level FlightAware
12:36AM 35.0640 -78.1820 32° Northeast 476 548 35,000  Level FlightAware
12:37AM 35.1210 -78.1380 32° Northeast 476 548 35,000  Level FlightAware
12:38AM 35.1990 -78.0780 32° Northeast 476 548 35,000  Level FlightAware
12:38AM 35.2560 -78.0350 32° Northeast 476 548 35,000  Level FlightAware
12:39AM 35.3320 -77.9760 32° Northeast 476 548 35,000  Level FlightAware
12:40AM 35.4800 -77.8500 35° Northeast 484 557 35,000  Level FlightAware
12:41AM 35.5550 -77.7900 33° Northeast 483 556 35,000  Level FlightAware
12:41AM 35.6400 -77.7220 33° Northeast 484 557 35,000  Level FlightAware
12:42AM 35.7150 -77.6620 33° Northeast 484 557 35,000  Level FlightAware
12:43AM 35.7890 -77.6020 33° Northeast 483 556 35,000  Level FlightAware
12:43AM 35.8640 -77.5430 33° Northeast 483 556 35,000  Level FlightAware
12:44AM 35.9390 -77.4820 33° Northeast 484 557 35,000  Level FlightAware
12:45AM 36.0270 -77.4100 33° Northeast 484 557 35,000  Level FlightAware
12:45AM 36.1010 -77.3510 33° Northeast 483 556 35,000  Level FlightAware
12:46AM 36.1820 -77.2850 33° Northeast 482 555 35,000  Level FlightAware
12:47AM 36.2670 -77.2160 33° Northeast 481 554 35,000  Level FlightAware
12:48AM 36.3390 -77.1570 33° Northeast 480 552 35,000  Level FlightAware
12:48AM 36.4100 -77.0990 33° Northeast 480 552 35,000  Level FlightAware
12:49AM 36.4880 -77.0350 33° Northeast 482 555 35,000  Level FlightAware
12:50AM 36.5680 -76.9700 33° Northeast 482 555 35,000  Level FlightAware
12:50AM 36.6470 -76.9040 34° Northeast 485 558 35,000  Level FlightAware
12:51AM 36.7310 -76.8340 34° Northeast 485 558 35,000  Level FlightAware
12:52AM 36.8060 -76.7720 33° Northeast 485 558 35,000  Level FlightAware
12:53AM 36.8850 -76.7070 33° Northeast 484 557 35,000  Level FlightAware
12:53AM 36.9580 -76.6460 34° Northeast 485 558 35,000  Level FlightAware
12:54AM 37.0481 -76.5709 34° Northeast 485 558 35,000  Level FlightAware ADS-B
12:54AM 37.1043 -76.5241 34° Northeast 485 558 35,000  Level FlightAware ADS-B
12:55AM 37.1612 -76.4764 34° Northeast 485 558 35,000  Level FlightAware ADS-B
12:55AM 37.2194 -76.4276 34° Northeast 486 559 35,000  Level FlightAware ADS-B
12:56AM 37.2750 -76.3808 34° Northeast 486 559 35,000  Level FlightAware ADS-B
12:56AM 37.3318 -76.3330 34° Northeast 486 559 35,000  Level FlightAware ADS-B
12:57AM 37.3894 -76.2843 34° Northeast 486 559 35,000  Level FlightAware ADS-B
12:58AM 37.4486 -76.2343 34° Northeast 488 562 35,000  Level FlightAware ADS-B
12:58AM 37.5049 -76.1865 34° Northeast 488 562 35,000  Level FlightAware ADS-B
12:59AM 37.5910 -76.1130 34° Northeast 487 560 35,000 -300 Level FlightAware
12:59AM 37.6369 -76.0743 34° Northeast 488 562 34,700 -840 Descending FlightAware ADS-B
01:00AM 37.6935 -76.0262 34° Northeast 487 560 34,300 -900 Descending FlightAware ADS-B
01:00AM 37.7502 -75.9777 34° Northeast 490 564 33,800 -1,020 Descending FlightAware ADS-B
01:01AM 37.8068 -75.9293 34° Northeast 493 567 33,300 -1,020 Descending FlightAware ADS-B
01:01AM 37.8637 -75.8805 34° Northeast 495 570 32,800 -1,620 Descending FlightAware ADS-B
01:02AM 37.9205 -75.8315 34° Northeast 493 567 31,700 -2,520 Descending FlightAware ADS-B
01:02AM 37.9773 -75.7826 34° Northeast 495 570 30,300 -3,180 Descending FlightAware ADS-B
01:03AM 38.0365 -75.7318 34° Northeast 505 581 28,500 -3,000 Descending FlightAware ADS-B
01:03AM 38.0951 -75.6812 34° Northeast 500 575 27,300 -2,400 Descending FlightAware ADS-B
01:04AM 38.1524 -75.6316 34° Northeast 494 568 26,100 -2,220 Descending FlightAware ADS-B
01:04AM 38.2087 -75.5828 34° Northeast 483 556 25,100 -2,460 Descending FlightAware ADS-B
01:05AM 38.2645 -75.5344 34° Northeast 482 555 23,600 -2,100 Descending FlightAware ADS-B
01:05AM 38.3191 -75.4867 34° Northeast 460 529 23,000 -600 Descending FlightAware ADS-B
01:06AM 38.3712 -75.4411 34° Northeast 451 519 23,000 -1,380 Level FlightAware ADS-B
01:06AM 38.4241 -75.3948 34° Northeast 463 533 21,600 -2,400 Descending FlightAware ADS-B
01:07AM 38.4773 -75.3482 34° Northeast 449 517 20,600 -2,220 Descending FlightAware ADS-B
01:07AM 38.5285 -75.3033 34° Northeast 441 507 19,400 -2,220 Descending FlightAware ADS-B
01:08AM 38.5786 -75.2593 34° Northeast 429 494 18,400 -1,740 Descending FlightAware ADS-B
01:08AM 38.6265 -75.2170 35° Northeast 410 472 17,700 -1,680 Descending FlightAware ADS-B
01:09AM 38.6738 -75.1753 35° Northeast 401 461 16,700 -1,680 Descending FlightAware ADS-B
01:09AM 38.7183 -75.1360 35° Northeast 388 447 16,000 -1,500 Descending FlightAware ADS-B
01:10AM 38.7632 -75.0964 35° Northeast 378 435 15,200 -1,800 Descending FlightAware ADS-B
01:10AM 38.8061 -75.0583 35° Northeast 363 418 14,200 -1,980 Descending FlightAware ADS-B
01:11AM 38.8473 -75.0217 35° Northeast 347 399 13,200 -1,680 Descending FlightAware ADS-B
01:11AM 38.8857 -74.9875 35° Northeast 322 371 12,500 -1,680 Descending FlightAware ADS-B
01:12AM 38.9138 -74.9625 35° Northeast 316 364 11,700 -2,160 Descending FlightAware ADS-B
01:12AM 38.9492 -74.9312 35° Northeast 311 358 10,600 -2,220 Descending FlightAware ADS-B
01:13AM 38.9717 -74.9111 35° Northeast 309 356 9,900 -1,980 Descending FlightAware ADS-B
01:13AM 38.9892 -74.8954 35° Northeast 302 348 9,500 -1,980 Descending FlightAware ADS-B
01:13AM 39.0036 -74.8825 35° Northeast 299 344 9,000 -2,340 Descending FlightAware ADS-B
01:13AM 39.0190 -74.8687 35° Northeast 296 341 8,500 -1,680 Descending FlightAware ADS-B
01:13AM 39.0361 -74.8534 35° Northeast 287 330 8,200 -1,020 Descending FlightAware ADS-B
01:14AM 39.0535 -74.8380 34° Northeast 292 336 8,000 -420 Descending FlightAware ADS-B
01:14AM 39.0708 -74.8226 35° Northeast 291 335 8,000  Level FlightAware ADS-B
01:14AM 39.0876 -74.8075 35° Northeast 294 338 8,000  Level FlightAware ADS-B
01:14AM 39.0988 -74.7974 35° Northeast 294 338 8,000  Level FlightAware ADS-B
01:14AM 39.1040 -74.7921 38° Northeast 297 342 8,000  Level FlightAware ADS-B
01:15AM 39.1075 -74.7877 44° Northeast 299 344 8,000  Level FlightAware ADS-B
01:15AM 39.1102 -74.7839 48° Northeast 301 346 8,000  Level FlightAware ADS-B
01:15AM 39.1194 -74.7691 51° Northeast 302 348 8,000  Level FlightAware ADS-B
01:15AM 39.1324 -74.7470 53° Northeast 302 348 8,000 -240 Level FlightAware ADS-B
01:15AM 39.1448 -74.7255 53° Northeast 288 331 7,900 -420 Descending FlightAware ADS-B
01:16AM 39.1564 -74.7054 53° Northeast 274 315 7,800 -600 Descending FlightAware ADS-B
01:16AM 39.1680 -74.6855 53° Northeast 260 299 7,600 -1,200 Descending FlightAware ADS-B
01:16AM 39.1788 -74.6671 53° Northeast 253 291 7,200 -1,500 Descending FlightAware ADS-B
01:16AM 39.1899 -74.6481 53° Northeast 252 290 6,800 -1,560 Descending FlightAware ADS-B
01:17AM 39.2006 -74.6302 52° Northeast 248 285 6,400 -1,620 Descending FlightAware ADS-B
01:17AM 39.2111 -74.6123 53° Northeast 248 285 6,000 -1,800 Descending FlightAware ADS-B
01:17AM 39.2219 -74.5942 52° Northeast 247 284 5,500 -1,800 Descending FlightAware ADS-B
01:17AM 39.2322 -74.5769 52° Northeast 243 280 5,100 -1,500 Descending FlightAware ADS-B
01:18AM 39.2404 -74.5630 53° Northeast 240 276 4,800 -1,440 Descending FlightAware ADS-B
01:18AM 39.2492 -74.5478 53° Northeast 236 272 4,500 -1,500 Descending FlightAware ADS-B
01:18AM 39.2590 -74.5311 53° Northeast 233 268 4,100 -1,620 Descending FlightAware ADS-B
01:18AM 39.2689 -74.5144 53° Northeast 233 268 3,700 -1,800 Descending FlightAware ADS-B
01:19AM 39.2790 -74.4974 52° Northeast 238 274 3,200 -1,800 Descending FlightAware ADS-B
01:19AM 39.2890 -74.4802 53° Northeast 237 273 2,800 -1,680 Descending FlightAware ADS-B
01:19AM 39.2978 -74.4651 53° Northeast 235 270 2,400 -1,680 Descending FlightAware ADS-B
01:19AM 39.3078 -74.4481 53° Northeast 234 269 2,000 -1,380 Descending FlightAware ADS-B
01:20AM 39.3182 -74.4306 52° Northeast 230 265 1,700 -780 Descending FlightAware ADS-B
01:20AM 39.3282 -74.4136 53° Northeast 226 260 1,600 -240 Descending FlightAware ADS-B
01:20AM 39.3391 -74.3950 53° Northeast 226 260 1,600  Level FlightAware ADS-B
01:20AM 39.3552 -74.3794 37° Northeast 226 260 1,600  Level FlightAware ADS-B
01:20AM 39.3578 -74.3793 North 183 211 1,600  Level FlightAware ADS-B
01:21AM 39.3615 -74.3799 353° North 180 207 1,600  Level FlightAware ADS-B
01:21AM 39.3643 -74.3809 345° North 174 200 1,600  Level FlightAware ADS-B
01:21AM 39.3684 -74.3831 337° Northwest 171 197 1,600  Level FlightAware ADS-B
01:21AM 39.3764 -74.3900 326° Northwest 165 190 1,600  Level FlightAware ADS-B
01:21AM 39.3788 -74.3931 315° West 163 188 1,600  Level FlightAware ADS-B
01:21AM 39.3831 -74.4001 308° West 162 186 1,600  Level FlightAware ADS-B
01:21AM 39.3859 -74.4051 306° West 162 186 1,600  Level FlightAware ADS-B
01:21AM 39.3907 -74.4150 302° West 157 181 1,600  Level FlightAware ADS-B
01:22AM 39.3942 -74.4225 301° West 154 177 1,600  Level FlightAware ADS-B
01:22AM 39.3994 -74.4344 299° West 152 175 1,600  Level FlightAware ADS-B
01:22AM 39.4023 -74.4413 299° West 151 174 1,600  Level FlightAware ADS-B
01:22AM 39.4087 -74.4567 298° West 149 171 1,600  Level FlightAware ADS-B
01:22AM 39.4119 -74.4642 299° West 139 160 1,600  Level FlightAware ADS-B
01:23AM 39.4137 -74.4686 298° West 139 160 1,600 -420 Level FlightAware ADS-B
01:23AM 39.4164 -74.4752 298° West 139 160 1,500 -660 Descending FlightAware ADS-B
01:23AM 39.4194 -74.4825 298° West 136 157 1,400 -720 Descending FlightAware ADS-B
01:23AM 39.4240 -74.4935 298° West 136 157 1,200 -780 Descending FlightAware ADS-B
01:24AM 39.4330 -74.5150 298° West 134 154 800 -660 Descending FlightAware
01:24AM 39.4370 -74.5250 297° West 134 154 700 -180 Descending FlightAware
01:24AM 39.4440 -74.5420 298° West 134 154 700  Level FlightAware